Time;durP1;ratioP1;P1;durP2;ratioP2;P2;SDS_P1;SDS_P2;PMS_P1;PMS_P2;Temp;Humidity;BMP_temperature;BMP_pressure;BME280_temperature;BME280_humidity;BME280_pressure;Samples;Min_cycle;Max_cycle;Signal;HPM_P1;HPM_P2
2024/01/03 00:00:55;;;;;;;;;;;18.10;65.80;;;;;;5071765;28;1496;-68
2024/01/03 00:03:22;;;;;;;;;;;18.10;65.80;;;;;;5068354;28;1882;-68
2024/01/03 00:05:47;;;;;;;;;;;18.00;65.80;;;;;;5040242;28;1396;-68
2024/01/03 00:08:34;;;;;;;;;;;18.10;65.90;;;;;;5041681;28;1971;-68
2024/01/03 00:11:01;;;;;;;;;;;18.00;65.80;;;;;;5038995;28;1316;-68
2024/01/03 00:13:33;;;;;;;;;;;18.00;65.80;;;;;;5038634;28;1450;-68
2024/01/03 00:15:58;;;;;;;;;;;18.10;65.90;;;;;;5041522;28;1268;-68
2024/01/03 00:18:36;;;;;;;;;;;18.10;65.90;;;;;;5038239;28;1781;-68
2024/01/03 00:21:10;;;;;;;;;;;18.10;65.90;;;;;;5039210;28;1331;-68
2024/01/03 00:23:39;;;;;;;;;;;18.10;66.30;;;;;;5038367;28;1304;-69
2024/01/03 00:26:06;;;;;;;;;;;18.10;66.90;;;;;;5071539;28;1299;-68
2024/01/03 00:28:32;;;;;;;;;;;18.20;67.20;;;;;;5070121;28;1902;-69
2024/01/03 00:30:57;;;;;;;;;;;18.30;67.20;;;;;;5040712;28;1364;-68
2024/01/03 00:33:23;;;;;;;;;;;18.40;67.40;;;;;;5037194;28;1351;-69
2024/01/03 00:35:48;;;;;;;;;;;18.50;67.60;;;;;;5038175;28;1269;-68
2024/01/03 00:38:14;;;;;;;;;;;18.50;66.80;;;;;;5045583;28;1645;-68
2024/01/03 00:40:48;;;;;;;;;;;18.50;66.10;;;;;;5038628;28;1454;-69
2024/01/03 00:43:14;;;;;;;;;;;18.50;65.70;;;;;;5038309;28;1629;-68
2024/01/03 00:45:39;;;;;;;;;;;18.50;65.80;;;;;;5037089;28;1566;-68
2024/01/03 00:48:05;;;;;;;;;;;18.40;65.80;;;;;;5040893;28;1965;-68
2024/01/03 00:50:30;;;;;;;;;;;18.40;66.00;;;;;;5039769;28;1375;-68
2024/01/03 00:52:56;;;;;;;;;;;18.40;66.00;;;;;;5039507;28;1547;-68
2024/01/03 00:55:21;;;;;;;;;;;18.40;66.10;;;;;;5038261;28;1115;-69
2024/01/03 00:57:47;;;;;;;;;;;18.30;66.10;;;;;;5038298;28;1538;-68
2024/01/03 01:00:13;;;;;;;;;;;18.30;66.10;;;;;;5038397;28;1534;-68
2024/01/03 01:02:38;;;;;;;;;;;18.30;66.20;;;;;;5039871;28;1399;-68
2024/01/03 01:05:04;;;;;;;;;;;18.30;66.20;;;;;;5046052;28;1274;-68
2024/01/03 01:07:29;;;;;;;;;;;18.30;66.30;;;;;;5036412;28;1917;-68
2024/01/03 01:09:54;;;;;;;;;;;18.20;66.20;;;;;;5038760;28;1372;-68
2024/01/03 01:12:21;;;;;;;;;;;18.30;66.40;;;;;;5039222;28;1304;-67
2024/01/03 01:14:46;;;;;;;;;;;18.20;66.30;;;;;;5038146;28;1254;-67
2024/01/03 01:17:12;;;;;;;;;;;18.20;66.30;;;;;;5037809;28;1344;-67
2024/01/03 01:19:37;;;;;;;;;;;18.20;66.30;;;;;;5036611;28;1425;-67
2024/01/03 01:22:03;;;;;;;;;;;18.20;66.40;;;;;;5039459;28;1460;-68
2024/01/03 01:24:28;;;;;;;;;;;18.10;66.30;;;;;;5038163;28;1251;-67
2024/01/03 01:26:53;;;;;;;;;;;18.10;66.30;;;;;;5036599;28;1973;-67
2024/01/03 01:29:19;;;;;;;;;;;18.20;66.40;;;;;;5042187;28;1191;-67
2024/01/03 01:31:45;;;;;;;;;;;18.10;66.30;;;;;;5038038;28;1520;-67
2024/01/03 01:34:10;;;;;;;;;;;18.10;66.40;;;;;;5038738;28;1522;-67
2024/01/03 01:36:36;;;;;;;;;;;18.10;66.40;;;;;;5039607;28;1318;-67
2024/01/03 01:39:03;;;;;;;;;;;18.10;66.40;;;;;;5041333;28;1493;-67
2024/01/03 01:41:28;;;;;;;;;;;18.10;66.40;;;;;;5039384;28;1265;-68
2024/01/03 01:43:54;;;;;;;;;;;18.10;66.40;;;;;;5037169;28;1451;-67
2024/01/03 01:46:19;;;;;;;;;;;18.10;66.50;;;;;;5037144;28;1191;-67
2024/01/03 01:48:45;;;;;;;;;;;18.10;66.50;;;;;;5038555;28;1967;-67
2024/01/03 01:51:10;;;;;;;;;;;18.10;66.50;;;;;;5035448;28;1335;-67
2024/01/03 01:53:36;;;;;;;;;;;18.10;66.50;;;;;;5069876;28;1464;-67
2024/01/03 01:56:01;;;;;;;;;;;18.10;66.50;;;;;;5069123;28;1400;-67
2024/01/03 01:58:27;;;;;;;;;;;18.00;66.40;;;;;;5069131;28;1632;-67
2024/01/03 02:00:52;;;;;;;;;;;18.10;66.50;;;;;;5036056;28;876;-67
2024/01/03 02:03:18;;;;;;;;;;;18.10;66.50;;;;;;5038097;28;1653;-67
2024/01/03 02:05:43;;;;;;;;;;;18.00;66.40;;;;;;5040707;28;1252;-67
2024/01/03 02:08:09;;;;;;;;;;;18.10;66.50;;;;;;5072816;28;1957;-67
2024/01/03 02:10:34;;;;;;;;;;;18.00;66.50;;;;;;5070452;28;1514;-68
2024/01/03 02:13:00;;;;;;;;;;;18.00;66.50;;;;;;5037438;28;1375;-67
2024/01/03 02:15:27;;;;;;;;;;;18.00;66.50;;;;;;5043238;28;1559;-67
2024/01/03 02:17:53;;;;;;;;;;;18.00;66.50;;;;;;5038917;28;1249;-67
2024/01/03 02:20:19;;;;;;;;;;;18.00;66.50;;;;;;5042345;28;1246;-68
2024/01/03 02:22:44;;;;;;;;;;;18.00;66.50;;;;;;5041070;28;1415;-67
2024/01/03 02:25:10;;;;;;;;;;;18.00;66.50;;;;;;5037709;28;1362;-67
2024/01/03 02:27:36;;;;;;;;;;;18.00;66.50;;;;;;5041517;28;1898;-67
2024/01/03 02:30:03;;;;;;;;;;;18.00;66.50;;;;;;5047724;28;1443;-67
2024/01/03 02:32:28;;;;;;;;;;;18.00;66.50;;;;;;5039007;28;1360;-67
2024/01/03 02:34:54;;;;;;;;;;;18.00;66.50;;;;;;5039935;28;1547;-67
2024/01/03 02:37:22;;;;;;;;;;;18.00;66.50;;;;;;5039688;28;1404;-68
2024/01/03 02:39:48;;;;;;;;;;;18.00;66.50;;;;;;5070745;28;1274;-67
2024/01/03 02:42:14;;;;;;;;;;;18.00;66.50;;;;;;5040536;28;1572;-67
2024/01/03 02:44:39;;;;;;;;;;;18.00;66.60;;;;;;5041055;28;1396;-67
2024/01/03 02:47:06;;;;;;;;;;;18.00;66.60;;;;;;5041245;28;1898;-67
2024/01/03 02:49:31;;;;;;;;;;;18.00;66.60;;;;;;5040169;28;1470;-67
2024/01/03 02:51:57;;;;;;;;;;;18.00;66.60;;;;;;5037582;28;1731;-67
2024/01/03 02:54:22;;;;;;;;;;;18.00;66.60;;;;;;5039910;28;1692;-67
2024/01/03 02:56:48;;;;;;;;;;;18.00;66.60;;;;;;5041459;28;1331;-67
2024/01/03 02:59:14;;;;;;;;;;;18.00;66.60;;;;;;5041239;28;1380;-67
2024/01/03 03:01:39;;;;;;;;;;;18.00;66.60;;;;;;5043470;28;1513;-67
2024/01/03 03:04:05;;;;;;;;;;;18.00;66.60;;;;;;5042582;28;1428;-67
2024/01/03 03:06:30;;;;;;;;;;;18.00;66.60;;;;;;5040339;28;1513;-67
2024/01/03 03:08:56;;;;;;;;;;;18.00;66.60;;;;;;5042032;28;1902;-67
2024/01/03 03:11:21;;;;;;;;;;;18.00;66.60;;;;;;5039679;28;1248;-67
2024/01/03 03:13:47;;;;;;;;;;;18.00;66.60;;;;;;5042094;28;1451;-68
2024/01/03 03:16:12;;;;;;;;;;;18.00;67.40;;;;;;5038208;28;1400;-67
2024/01/03 03:18:38;;;;;;;;;;;18.00;66.70;;;;;;5039680;28;1487;-67
2024/01/03 03:21:03;;;;;;;;;;;18.00;66.60;;;;;;5038377;28;1438;-67
2024/01/03 03:23:29;;;;;;;;;;;18.00;66.70;;;;;;5039714;28;1661;-67
2024/01/03 03:25:54;;;;;;;;;;;18.00;66.70;;;;;;5040999;28;1268;-67
2024/01/03 03:28:21;;;;;;;;;;;18.00;66.70;;;;;;5042487;28;1905;-67
2024/01/03 03:30:46;;;;;;;;;;;17.90;66.60;;;;;;5040744;28;1171;-67
2024/01/03 03:33:12;;;;;;;;;;;18.00;66.70;;;;;;5039687;28;1369;-67
2024/01/03 03:35:37;;;;;;;;;;;18.00;66.70;;;;;;5036576;28;1327;-67
2024/01/03 03:38:03;;;;;;;;;;;18.00;66.70;;;;;;5038020;28;1402;-67
2024/01/03 03:40:28;;;;;;;;;;;18.00;66.70;;;;;;5036295;28;1437;-68
2024/01/03 03:42:54;;;;;;;;;;;18.00;66.70;;;;;;5040709;28;1332;-67
2024/01/03 03:45:19;;;;;;;;;;;18.00;66.70;;;;;;5042603;28;1456;-70
2024/01/03 03:47:45;;;;;;;;;;;17.90;66.70;;;;;;5040190;28;1926;-69
2024/01/03 03:50:11;;;;;;;;;;;18.00;66.70;;;;;;5040659;28;1315;-68
2024/01/03 03:52:39;;;;;;;;;;;17.90;66.70;;;;;;5041043;28;1363;-68
2024/01/03 03:55:04;;;;;;;;;;;17.90;66.70;;;;;;5043631;28;2084;-68
2024/01/03 03:57:30;;;;;;;;;;;17.90;66.70;;;;;;5069167;28;1440;-68
2024/01/03 03:59:55;;;;;;;;;;;17.90;66.70;;;;;;5045788;28;1473;-68
2024/01/03 04:02:21;;;;;;;;;;;17.90;66.70;;;;;;5040383;28;1830;-68
2024/01/03 04:04:46;;;;;;;;;;;17.90;66.70;;;;;;5040059;28;1348;-68
2024/01/03 04:07:12;;;;;;;;;;;17.90;66.70;;;;;;5039636;28;1914;-67
2024/01/03 04:09:37;;;;;;;;;;;17.90;66.70;;;;;;5039291;28;1442;-68
2024/01/03 04:12:03;;;;;;;;;;;17.90;66.70;;;;;;5040796;28;1648;-69
2024/01/03 04:14:28;;;;;;;;;;;17.90;66.70;;;;;;5039126;28;1465;-68
2024/01/03 04:16:54;;;;;;;;;;;17.90;66.70;;;;;;5041340;28;1328;-68
2024/01/03 04:19:19;;;;;;;;;;;17.90;66.70;;;;;;5041262;28;1499;-68
2024/01/03 04:21:45;;;;;;;;;;;17.90;66.70;;;;;;5040119;28;1488;-67
2024/01/03 04:24:10;;;;;;;;;;;17.90;66.70;;;;;;5038994;28;1272;-67
2024/01/03 04:26:36;;;;;;;;;;;17.90;66.70;;;;;;5039026;28;1394;-66
2024/01/03 04:29:01;;;;;;;;;;;17.90;66.70;;;;;;5037254;28;1894;-67
2024/01/03 04:31:27;;;;;;;;;;;17.90;66.70;;;;;;5035070;28;1486;-68
2024/01/03 04:33:52;;;;;;;;;;;17.90;66.70;;;;;;5037511;28;1460;-68
2024/01/03 04:36:17;;;;;;;;;;;17.90;66.70;;;;;;5040457;28;1710;-68
2024/01/03 04:38:43;;;;;;;;;;;17.90;66.70;;;;;;5040352;28;1615;-68
2024/01/03 04:41:08;;;;;;;;;;;17.90;66.70;;;;;;5036241;28;1347;-68
2024/01/03 04:43:34;;;;;;;;;;;17.90;66.80;;;;;;5038340;28;1825;-68
2024/01/03 04:46:03;;;;;;;;;;;17.90;66.80;;;;;;5037469;28;1492;-68
2024/01/03 04:48:28;;;;;;;;;;;17.90;66.80;;;;;;5038872;28;1969;-68
2024/01/03 04:50:54;;;;;;;;;;;17.90;66.80;;;;;;5039166;28;1307;-68
2024/01/03 04:53:19;;;;;;;;;;;17.90;66.80;;;;;;5037402;28;1659;-69
2024/01/03 04:55:45;;;;;;;;;;;17.90;66.80;;;;;;5038492;28;1349;-68
2024/01/03 04:58:10;;;;;;;;;;;17.90;66.80;;;;;;5069139;28;1527;-68
2024/01/03 05:00:36;;;;;;;;;;;17.90;66.80;;;;;;5037633;28;1586;-68
2024/01/03 05:03:02;;;;;;;;;;;17.90;66.80;;;;;;5036072;28;1464;-68
2024/01/03 05:05:27;;;;;;;;;;;17.90;66.80;;;;;;5036039;28;1602;-67
2024/01/03 05:07:54;;;;;;;;;;;17.90;66.80;;;;;;5068132;28;2062;-68
2024/01/03 05:10:19;;;;;;;;;;;17.90;66.80;;;;;;5036708;28;1572;-67
2024/01/03 05:12:45;;;;;;;;;;;17.90;66.80;;;;;;5038677;28;1280;-68
2024/01/03 05:15:11;;;;;;;;;;;17.90;66.70;;;;;;5037458;28;1511;-68
2024/01/03 05:17:36;;;;;;;;;;;18.00;66.70;;;;;;5037767;28;1266;-69
2024/01/03 05:20:02;;;;;;;;;;;18.00;66.60;;;;;;5038468;28;1640;-68
2024/01/03 05:22:27;;;;;;;;;;;18.00;66.50;;;;;;5038439;28;1322;-68
2024/01/03 05:24:54;;;;;;;;;;;18.00;66.40;;;;;;5035404;28;1553;-67
2024/01/03 05:27:20;;;;;;;;;;;18.00;66.30;;;;;;5036400;28;1922;-67
2024/01/03 05:29:46;;;;;;;;;;;18.00;66.20;;;;;;5037465;28;1383;-68
2024/01/03 05:32:12;;;;;;;;;;;18.10;66.10;;;;;;5047648;28;1443;-68
2024/01/03 05:34:37;;;;;;;;;;;18.10;66.00;;;;;;5040120;28;1627;-68
2024/01/03 05:37:03;;;;;;;;;;;18.10;65.90;;;;;;5033872;28;1418;-66
2024/01/03 05:39:28;;;;;;;;;;;18.10;65.90;;;;;;5030013;28;2058;-67
2024/01/03 05:41:54;;;;;;;;;;;18.20;65.80;;;;;;5070317;28;1405;-66
2024/01/03 05:44:19;;;;;;;;;;;18.20;65.70;;;;;;5042027;28;1267;-66
2024/01/03 05:46:45;;;;;;;;;;;18.20;65.60;;;;;;5042387;28;1130;-66
2024/01/03 05:49:11;;;;;;;;;;;18.20;65.50;;;;;;5044067;28;1963;-66
2024/01/03 05:51:36;;;;;;;;;;;18.20;65.50;;;;;;5044787;28;1351;-66
2024/01/03 05:54:02;;;;;;;;;;;18.30;65.50;;;;;;5041022;28;1702;-66
2024/01/03 05:56:27;;;;;;;;;;;18.30;65.40;;;;;;5041676;28;1269;-68
2024/01/03 05:58:53;;;;;;;;;;;18.30;65.40;;;;;;5043391;28;1615;-68
2024/01/03 06:01:18;;;;;;;;;;;18.30;65.40;;;;;;5041817;28;1350;-68
2024/01/03 06:03:44;;;;;;;;;;;18.30;65.20;;;;;;5038773;28;1394;-68
2024/01/03 06:06:09;;;;;;;;;;;18.30;65.20;;;;;;5038381;28;1261;-66
2024/01/03 06:08:35;;;;;;;;;;;18.30;65.20;;;;;;5068729;28;1910;-66
2024/01/03 06:11:00;;;;;;;;;;;18.30;65.10;;;;;;5042444;28;1400;-65
2024/01/03 06:13:26;;;;;;;;;;;18.40;65.10;;;;;;5037851;28;1648;-65
2024/01/03 06:15:51;;;;;;;;;;;18.40;65.10;;;;;;5039315;28;1462;-65
2024/01/03 06:18:17;;;;;;;;;;;18.40;65.00;;;;;;5039872;28;1374;-65
2024/01/03 06:20:42;;;;;;;;;;;18.40;65.10;;;;;;5039755;28;1441;-67
2024/01/03 06:23:08;;;;;;;;;;;18.40;65.00;;;;;;5042033;28;1350;-68
2024/01/03 06:25:33;;;;;;;;;;;18.40;65.00;;;;;;5040100;28;1236;-68
2024/01/03 06:27:59;;;;;;;;;;;18.40;65.00;;;;;;5040536;28;1906;-68
2024/01/03 06:30:24;;;;;;;;;;;18.40;64.90;;;;;;5039941;28;1664;-68
2024/01/03 06:32:49;;;;;;;;;;;18.40;64.90;;;;;;5039656;28;1520;-68
2024/01/03 06:35:15;;;;;;;;;;;18.40;64.80;;;;;;5040407;28;1657;-68
2024/01/03 06:37:40;;;;;;;;;;;18.40;64.80;;;;;;5072401;28;1338;-68
2024/01/03 06:40:06;;;;;;;;;;;18.40;64.80;;;;;;5071242;28;1596;-69
2024/01/03 06:42:32;;;;;;;;;;;18.40;64.80;;;;;;5040124;28;1619;-69
2024/01/03 06:44:57;;;;;;;;;;;18.40;64.80;;;;;;5042189;28;1234;-68
2024/01/03 06:47:23;;;;;;;;;;;18.40;64.70;;;;;;5039648;28;1926;-67
2024/01/03 06:49:48;;;;;;;;;;;18.40;64.80;;;;;;5039948;28;1298;-67
2024/01/03 06:52:14;;;;;;;;;;;18.40;64.80;;;;;;5041384;28;1465;-65
2024/01/03 06:54:39;;;;;;;;;;;18.40;64.80;;;;;;5040968;28;1233;-66
2024/01/03 06:57:05;;;;;;;;;;;18.40;64.80;;;;;;5070461;28;1132;-68
2024/01/03 06:59:36;;;;;;;;;;;18.40;64.80;;;;;;5042424;28;1265;-65
2024/01/03 07:02:01;;;;;;;;;;;18.40;64.90;;;;;;5040563;28;1367;-65
2024/01/03 07:04:27;;;;;;;;;;;18.40;64.90;;;;;;5040208;28;1162;-66
2024/01/03 07:06:52;;;;;;;;;;;18.40;64.90;;;;;;5037371;28;1327;-69
2024/01/03 07:09:18;;;;;;;;;;;18.40;64.90;;;;;;5029074;28;2005;-66
2024/01/03 07:11:43;;;;;;;;;;;18.40;65.00;;;;;;5041326;28;1400;-68
2024/01/03 07:14:12;;;;;;;;;;;18.40;65.80;;;;;;5045121;28;1248;-67
2024/01/03 07:16:37;;;;;;;;;;;18.40;65.00;;;;;;5041348;28;1343;-68
2024/01/03 07:19:03;;;;;;;;;;;18.40;65.00;;;;;;5038525;28;1653;-68
2024/01/03 07:21:28;;;;;;;;;;;18.40;65.00;;;;;;5041350;28;1581;-68
2024/01/03 07:23:54;;;;;;;;;;;18.30;65.00;;;;;;5038504;28;1357;-68
2024/01/03 07:26:19;;;;;;;;;;;18.40;65.10;;;;;;5039743;28;1646;-68
2024/01/03 07:28:45;;;;;;;;;;;18.40;65.10;;;;;;5036559;28;1890;-68
2024/01/03 07:31:11;;;;;;;;;;;18.40;65.10;;;;;;5041144;28;1600;-67
2024/01/03 07:33:37;;;;;;;;;;;18.30;65.10;;;;;;5040663;28;1343;-67
2024/01/03 07:36:02;;;;;;;;;;;18.30;65.10;;;;;;5040811;28;1249;-67
2024/01/03 07:38:28;;;;;;;;;;;18.30;65.10;;;;;;5039175;28;1736;-68
2024/01/03 07:40:53;;;;;;;;;;;18.30;65.10;;;;;;5068421;28;1361;-67
2024/01/03 07:43:18;;;;;;;;;;;18.30;65.20;;;;;;5039032;28;1542;-68
2024/01/03 07:45:44;;;;;;;;;;;18.30;65.20;;;;;;5040400;28;1427;-67
2024/01/03 07:48:09;;;;;;;;;;;18.30;65.20;;;;;;5037313;28;1898;-67
2024/01/03 07:50:35;;;;;;;;;;;18.30;65.20;;;;;;5040664;28;1261;-67
2024/01/03 07:53:00;;;;;;;;;;;18.30;65.20;;;;;;5037121;28;1503;-68
2024/01/03 07:55:26;;;;;;;;;;;18.30;65.20;;;;;;5037894;28;1780;-68
2024/01/03 07:57:51;;;;;;;;;;;18.30;65.30;;;;;;5030324;28;1488;-67
2024/01/03 08:00:17;;;;;;;;;;;18.30;65.30;;;;;;5038670;28;1269;-68
2024/01/03 08:02:42;;;;;;;;;;;18.30;65.30;;;;;;5036616;28;1390;-67
2024/01/03 08:05:08;;;;;;;;;;;18.30;65.30;;;;;;5045956;28;1258;-67
2024/01/03 08:07:33;;;;;;;;;;;18.30;65.30;;;;;;5036596;28;1914;-68
2024/01/03 08:09:59;;;;;;;;;;;18.30;65.30;;;;;;5033788;28;1578;-68
2024/01/03 08:12:24;;;;;;;;;;;18.30;65.30;;;;;;5040301;28;1467;-68
2024/01/03 08:14:50;;;;;;;;;;;18.30;65.30;;;;;;5038715;28;1267;-67
2024/01/03 08:17:15;;;;;;;;;;;18.30;65.30;;;;;;5037547;28;1421;-67
2024/01/03 08:19:41;;;;;;;;;;;18.30;65.40;;;;;;5067574;28;1279;-67
2024/01/03 08:22:06;;;;;;;;;;;18.30;65.40;;;;;;5039482;28;1405;-67
2024/01/03 08:24:32;;;;;;;;;;;18.30;65.40;;;;;;5039960;28;1576;-67
2024/01/03 08:26:57;;;;;;;;;;;18.30;65.40;;;;;;5039345;28;1269;-67
2024/01/03 08:29:23;;;;;;;;;;;18.30;65.50;;;;;;5038309;28;1749;-67
2024/01/03 08:31:49;;;;;;;;;;;18.20;65.40;;;;;;5040077;28;1477;-67
2024/01/03 08:34:14;;;;;;;;;;;18.20;65.50;;;;;;5037563;28;1389;-68
2024/01/03 08:36:40;;;;;;;;;;;18.20;65.50;;;;;;5046058;28;1370;-67
2024/01/03 08:39:06;;;;;;;;;;;18.20;65.50;;;;;;5036524;28;1262;-67
2024/01/03 08:41:31;;;;;;;;;;;18.20;65.50;;;;;;5067955;28;1553;-67
2024/01/03 08:43:57;;;;;;;;;;;18.20;65.50;;;;;;5039017;28;1436;-67
2024/01/03 08:46:25;;;;;;;;;;;18.20;65.60;;;;;;5039099;28;1707;-68
2024/01/03 08:48:50;;;;;;;;;;;18.20;65.60;;;;;;5038179;28;1973;-68
2024/01/03 08:51:17;;;;;;;;;;;18.20;65.60;;;;;;5045925;28;1258;-67
2024/01/03 08:53:42;;;;;;;;;;;18.20;65.60;;;;;;5036239;28;1498;-67
2024/01/03 08:56:14;;;;;;;;;;;18.20;65.60;;;;;;5036228;28;1288;-67
2024/01/03 08:58:43;;;;;;;;;;;18.20;65.60;;;;;;5023889;28;1974;-66
2024/01/03 09:01:08;;;;;;;;;;;18.20;65.60;;;;;;5070293;28;1236;-66
2024/01/03 09:03:38;;;;;;;;;;;18.20;65.60;;;;;;5036006;28;1574;-66
2024/01/03 09:06:04;;;;;;;;;;;18.20;65.60;;;;;;5037524;28;1322;-66
2024/01/03 09:08:30;;;;;;;;;;;18.20;65.50;;;;;;5037241;28;1906;-66
2024/01/03 09:10:55;;;;;;;;;;;18.30;65.50;;;;;;5039600;28;1346;-66
2024/01/03 09:13:21;;;;;;;;;;;18.30;65.40;;;;;;5036617;28;1329;-66
2024/01/03 09:15:46;;;;;;;;;;;18.30;65.30;;;;;;5041769;28;1414;-67
2024/01/03 09:18:11;;;;;;;;;;;18.30;65.30;;;;;;5073455;28;1342;-67
2024/01/03 09:20:37;;;;;;;;;;;18.30;65.20;;;;;;5046496;28;1258;-68
2024/01/03 09:23:02;;;;;;;;;;;18.30;65.20;;;;;;5049472;28;1292;-68
2024/01/03 09:25:28;;;;;;;;;;;18.30;65.20;;;;;;5041571;28;1138;-68
2024/01/03 09:27:53;;;;;;;;;;;18.40;65.20;;;;;;5042903;28;1898;-67
2024/01/03 09:30:19;;;;;;;;;;;18.30;65.10;;;;;;5043909;28;1451;-67
2024/01/03 09:32:44;;;;;;;;;;;18.30;65.10;;;;;;5039643;28;1387;-68
2024/01/03 09:35:10;;;;;;;;;;;18.30;65.10;;;;;;5041226;28;1372;-67
2024/01/03 09:37:35;;;;;;;;;;;18.40;65.10;;;;;;5038287;28;1258;-68
2024/01/03 09:40:02;;;;;;;;;;;18.30;65.10;;;;;;5074424;28;1561;-68
2024/01/03 09:42:27;;;;;;;;;;;18.30;65.10;;;;;;5042914;28;1355;-68
2024/01/03 09:44:53;;;;;;;;;;;18.30;65.10;;;;;;5049052;28;1656;-68
2024/01/03 09:47:20;;;;;;;;;;;18.30;65.10;;;;;;5039951;28;1960;-68
2024/01/03 09:49:45;;;;;;;;;;;18.30;65.10;;;;;;5038318;28;1226;-67
2024/01/03 09:52:11;;;;;;;;;;;18.30;65.20;;;;;;5042944;28;1255;-68
2024/01/03 09:54:38;;;;;;;;;;;18.30;65.20;;;;;;5073068;28;1053;-69
2024/01/03 09:57:03;;;;;;;;;;;18.30;65.20;;;;;;5048984;28;1257;-69
2024/01/03 09:59:29;;;;;;;;;;;18.30;65.20;;;;;;5026482;28;1791;-68
2024/01/03 10:01:55;;;;;;;;;;;18.30;65.30;;;;;;5073577;28;1406;-69
2024/01/03 10:04:21;;;;;;;;;;;18.30;65.30;;;;;;5040252;28;1338;-69
2024/01/03 10:06:50;;;;;;;;;;;18.30;65.30;;;;;;5042129;28;1318;-68
2024/01/03 10:09:17;;;;;;;;;;;18.30;65.30;;;;;;5071365;28;1902;-68
2024/01/03 10:11:43;;;;;;;;;;;18.30;65.30;;;;;;5041312;28;1301;-69
2024/01/03 10:14:18;;;;;;;;;;;18.30;65.40;;;;;;5070629;28;1752;-68
2024/01/03 10:16:44;;;;;;;;;;;18.30;65.40;;;;;;5039834;28;1391;-69
2024/01/03 10:19:10;;;;;;;;;;;18.30;65.40;;;;;;5042104;28;1461;-69
2024/01/03 10:21:37;;;;;;;;;;;18.30;65.40;;;;;;5043806;28;1348;-68
2024/01/03 10:24:10;;;;;;;;;;;18.30;65.40;;;;;;5039369;28;1499;-69
2024/01/03 10:26:36;;;;;;;;;;;18.30;65.40;;;;;;5042610;28;1383;-69
2024/01/03 10:29:17;;;;;;;;;;;18.30;65.40;;;;;;5039487;28;1898;-69
2024/01/03 10:31:43;;;;;;;;;;;18.30;65.70;;;;;;5072255;28;1292;-67
2024/01/03 10:34:12;;;;;;;;;;;18.30;65.60;;;;;;5040388;28;1193;-69
2024/01/03 10:36:40;;;;;;;;;;;18.30;65.50;;;;;;5041528;28;1513;-69
2024/01/03 10:39:06;;;;;;;;;;;18.30;65.60;;;;;;5038764;28;1548;-68
2024/01/03 10:41:31;;;;;;;;;;;18.30;65.60;;;;;;5047997;28;1308;-68
2024/01/03 10:44:03;;;;;;;;;;;18.30;65.50;;;;;;5038559;28;1467;-70
2024/01/03 10:46:28;;;;;;;;;;;18.30;65.40;;;;;;5038359;28;1395;-70
2024/01/03 10:48:54;;;;;;;;;;;18.40;65.30;;;;;;5039641;28;1981;-68
2024/01/03 10:51:22;;;;;;;;;;;18.40;65.30;;;;;;5040156;28;1383;-68
2024/01/03 10:53:47;;;;;;;;;;;18.40;65.30;;;;;;5038446;28;1463;-68
2024/01/03 10:56:13;;;;;;;;;;;18.40;65.30;;;;;;5046795;28;1446;-69
2024/01/03 10:58:39;;;;;;;;;;;18.40;65.20;;;;;;5054897;28;1559;-69
2024/01/03 11:01:19;;;;;;;;;;;18.40;65.20;;;;;;5040384;28;1312;-68
2024/01/03 11:04:04;;;;;;;;;;;18.40;65.30;;;;;;5024606;28;1292;-69
2024/01/03 11:06:44;;;;;;;;;;;18.40;65.20;;;;;;5037574;28;1872;-69
2024/01/03 11:09:10;;;;;;;;;;;18.40;65.20;;;;;;5036962;28;2058;-70
2024/01/03 11:11:36;;;;;;;;;;;18.40;65.20;;;;;;5037188;28;1359;-69
2024/01/03 11:14:23;;;;;;;;;;;18.40;65.20;;;;;;5037970;28;2250;-69
2024/01/03 11:16:49;;;;;;;;;;;18.40;65.30;;;;;;5040041;28;1468;-70
2024/01/03 11:19:14;;;;;;;;;;;18.30;65.20;;;;;;5036362;28;1136;-70
2024/01/03 11:21:40;;;;;;;;;;;18.30;65.20;;;;;;5042546;28;1461;-68
2024/01/03 11:24:21;;;;;;;;;;;18.30;65.20;;;;;;5037953;28;1494;-69
2024/01/03 11:26:52;;;;;;;;;;;18.30;65.30;;;;;;5037083;28;1575;-70
2024/01/03 11:29:45;;;;;;;;;;;18.30;65.30;;;;;;5053148;28;1898;-70
2024/01/03 11:32:14;;;;;;;;;;;18.30;65.30;;;;;;5036664;28;1894;-70
2024/01/03 11:34:43;;;;;;;;;;;18.30;65.40;;;;;;5069317;28;1287;-69
2024/01/03 11:37:09;;;;;;;;;;;18.30;65.30;;;;;;5037017;28;1293;-68
2024/01/03 11:39:35;;;;;;;;;;;18.30;65.40;;;;;;5037857;28;1369;-69
2024/01/03 11:42:00;;;;;;;;;;;18.30;65.40;;;;;;5038186;28;1382;-68
2024/01/03 11:44:26;;;;;;;;;;;18.30;65.40;;;;;;5052364;28;1837;-69
2024/01/03 11:47:04;;;;;;;;;;;18.30;65.40;;;;;;5038837;28;1336;-69
2024/01/03 11:49:29;;;;;;;;;;;18.30;65.30;;;;;;5046662;28;1890;-71
2024/01/03 11:51:55;;;;;;;;;;;18.30;65.30;;;;;;5038278;28;1569;-69
2024/01/03 11:54:20;;;;;;;;;;;18.30;65.20;;;;;;5038324;28;1744;-69
2024/01/03 11:56:46;;;;;;;;;;;18.40;65.30;;;;;;5039630;28;1359;-69
2024/01/03 11:59:12;;;;;;;;;;;18.30;65.20;;;;;;5041330;28;1303;-69
2024/01/03 12:01:37;;;;;;;;;;;18.40;65.20;;;;;;5046992;28;1339;-68
2024/01/03 12:04:08;;;;;;;;;;;18.40;65.20;;;;;;5040658;28;1389;-68
2024/01/03 12:06:34;;;;;;;;;;;18.40;65.20;;;;;;5039135;28;1558;-68
2024/01/03 12:09:00;;;;;;;;;;;18.40;65.10;;;;;;5037345;28;1969;-68
2024/01/03 12:11:25;;;;;;;;;;;18.40;65.10;;;;;;5030264;28;1517;-68
2024/01/03 12:13:51;;;;;;;;;;;18.40;65.10;;;;;;5037969;28;1332;-69
2024/01/03 12:16:16;;;;;;;;;;;18.40;65.10;;;;;;5070579;28;1525;-68
2024/01/03 12:18:51;;;;;;;;;;;18.40;65.10;;;;;;5038278;28;1388;-69
2024/01/03 12:21:17;;;;;;;;;;;18.40;65.10;;;;;;5037505;28;1361;-69
2024/01/03 12:23:55;;;;;;;;;;;18.30;65.00;;;;;;5039219;28;1649;-68
2024/01/03 12:26:21;;;;;;;;;;;18.40;65.10;;;;;;5071115;28;1456;-69
2024/01/03 12:28:46;;;;;;;;;;;18.40;65.20;;;;;;5036866;28;1898;-68
2024/01/03 12:31:18;;;;;;;;;;;18.40;65.20;;;;;;5046629;28;959;-70
2024/01/03 12:33:44;;;;;;;;;;;18.30;65.10;;;;;;5039482;28;1260;-69
2024/01/03 12:36:10;;;;;;;;;;;18.30;65.20;;;;;;5022821;28;1179;-69
2024/01/03 12:38:35;;;;;;;;;;;18.30;65.20;;;;;;5034251;28;1282;-68
2024/01/03 12:41:00;;;;;;;;;;;18.30;65.20;;;;;;5069324;28;1439;-69
2024/01/03 12:43:26;;;;;;;;;;;18.30;65.20;;;;;;5035360;28;1678;-69
2024/01/03 12:45:51;;;;;;;;;;;18.30;65.20;;;;;;5039774;28;1298;-69
2024/01/03 12:48:17;;;;;;;;;;;18.30;65.20;;;;;;5038072;28;1907;-69
2024/01/03 12:50:43;;;;;;;;;;;18.40;66.30;;;;;;5038503;28;1569;-69
2024/01/03 12:53:08;;;;;;;;;;;18.40;66.60;;;;;;5040403;28;1304;-69
2024/01/03 12:55:34;;;;;;;;;;;18.50;66.60;;;;;;5021685;28;1457;-68
2024/01/03 12:57:59;;;;;;;;;;;18.60;66.90;;;;;;5038714;28;1494;-69
2024/01/03 13:00:25;;;;;;;;;;;18.60;66.80;;;;;;5045192;28;1563;-69
2024/01/03 13:02:50;;;;;;;;;;;18.60;66.70;;;;;;5035959;28;1436;-68
2024/01/03 13:05:16;;;;;;;;;;;18.70;67.20;;;;;;5070096;28;1626;-69
2024/01/03 13:07:41;;;;;;;;;;;18.70;67.50;;;;;;5038516;28;1969;-69
2024/01/03 13:10:07;;;;;;;;;;;18.70;67.40;;;;;;5038688;28;2031;-69
2024/01/03 13:12:33;;;;;;;;;;;18.80;67.20;;;;;;5037182;28;1527;-68
2024/01/03 13:14:58;;;;;;;;;;;18.80;66.90;;;;;;5037887;28;1569;-69
2024/01/03 13:17:25;;;;;;;;;;;18.80;67.40;;;;;;5035643;28;1547;-69
2024/01/03 13:19:50;;;;;;;;;;;18.90;67.00;;;;;;5039649;28;1276;-69
2024/01/03 13:22:16;;;;;;;;;;;18.80;67.20;;;;;;5040751;28;1474;-68
2024/01/03 13:24:42;;;;;;;;;;;18.90;67.20;;;;;;5046230;28;1496;-68
2024/01/03 13:27:07;;;;;;;;;;;18.90;67.40;;;;;;5037610;28;1268;-68
2024/01/03 13:29:33;;;;;;;;;;;18.90;67.10;;;;;;5025050;28;1906;-69
2024/01/03 13:31:58;;;;;;;;;;;18.90;67.00;;;;;;5034887;28;1257;-68
2024/01/03 13:34:24;;;;;;;;;;;18.90;67.20;;;;;;5038138;28;1385;-69
2024/01/03 13:36:50;;;;;;;;;;;19.00;67.10;;;;;;5036152;28;1285;-69
2024/01/03 13:39:15;;;;;;;;;;;19.00;66.90;;;;;;5034384;28;1382;-69
2024/01/03 13:41:41;;;;;;;;;;;19.00;67.00;;;;;;5037486;28;1467;-69
2024/01/03 13:44:06;;;;;;;;;;;19.00;66.50;;;;;;5036911;28;1584;-68
2024/01/03 13:46:32;;;;;;;;;;;19.00;66.10;;;;;;5036748;28;1242;-69
2024/01/03 13:48:57;;;;;;;;;;;19.00;65.80;;;;;;5040953;28;1997;-68
2024/01/03 13:51:23;;;;;;;;;;;18.90;65.80;;;;;;5044401;28;1332;-70
2024/01/03 13:53:49;;;;;;;;;;;18.90;65.70;;;;;;5039813;28;1285;-69
2024/01/03 13:56:19;;;;;;;;;;;18.90;65.80;;;;;;5036884;28;1382;-69
2024/01/03 13:58:46;;;;;;;;;;;18.80;65.70;;;;;;5039806;28;1226;-69
2024/01/03 14:01:12;;;;;;;;;;;18.80;65.80;;;;;;5036294;28;1270;-69
2024/01/03 14:03:37;;;;;;;;;;;18.80;65.80;;;;;;5039344;28;1440;-69
2024/01/03 14:06:03;;;;;;;;;;;18.80;65.90;;;;;;5040773;28;1527;-69
2024/01/03 14:08:29;;;;;;;;;;;18.70;65.90;;;;;;5041149;28;1922;-69
2024/01/03 14:10:54;;;;;;;;;;;18.70;65.90;;;;;;5042236;28;863;-69
2024/01/03 14:13:20;;;;;;;;;;;18.70;65.90;;;;;;5039668;28;1624;-69
2024/01/03 14:15:45;;;;;;;;;;;18.70;65.90;;;;;;5043471;28;1354;-69
2024/01/03 14:18:11;;;;;;;;;;;18.70;65.90;;;;;;5038630;28;1400;-69
2024/01/03 14:20:37;;;;;;;;;;;18.70;65.90;;;;;;5044574;28;1491;-69
2024/01/03 14:23:03;;;;;;;;;;;18.70;65.90;;;;;;5037351;28;1392;-69
2024/01/03 14:25:28;;;;;;;;;;;18.70;65.90;;;;;;5043045;28;1371;-69